EHGR/GLZ METAR and TAF weather

Enter ICAO airport designator
Station Type Date Time Source
EHGR METAR 2019/06/24 23:25 UTC NOAA

EHGR 242325Z AUTO 03005KT 9999 BKN250 BKN330 22/19 Q1016 BLU


Station Type Date Time Source
EHGR Decoded METAR 2019/06/24 23:25 UTC NOAA

Gilze-Rijen, Netherlands (EHGR) 51-34N 004-56E 24M
Jun 24, 2019 - 07:25 PM EDT / 2019.06.24 2325 UTC
Wind: from the NNE (030 degrees) at 6 MPH (5 KT):0
Visibility: greater than 7 mile(s):0
Sky conditions: mostly cloudy
Temperature: 71 F (22 C)
Dew Point: 66 F (19 C)
Relative Humidity: 83%
Pressure (altimeter): 30.00 in. Hg (1016 hPa)
ob: EHGR 242325Z AUTO 03005KT 9999 BKN250 BKN330 22/19 Q1016 BLU
cycle: 23

Station Type Date Time Source
EHGR TAF 2019/06/24 09:06 UTC NOAA

TAF TAF EHGR 240822Z 2409/2421 14007KT CAVOK PROB40 2418/2421 VRB03KT

Example: see airport list